Latest Weather Observations for Mareeba

IDQ60801

Issued at 7:02 pm EST Tuesday 22 August 2017 (issued every 30 minutes, with the page automatically refreshed every 10 minutes)

About weather observations | Map of weather stations | Latest weather observations for QLD | Other Formats
Station Details ID: 031210 Name: MAREEBA AIRPORT Lat: -17.07 Lon: 145.43 Height: 471.93 m
Data from the previous 72 hours. | See also: Recent months at Mareeba
Date/Time
EST
Temp
°C
App
Temp
°C
Dew
Point
°C
Rel
Hum
%
Delta-T
°C
Wind Press
QNH
hPa
Press
MSL
hPa
Rain since
9am
mm
Dir  Spd
km/h
Gust
km/h
Spd
kts
Gust
kts
22/07:00pm 19.1 19.4 13.5 70 3.3 N 4 7 2 4 1018.8 - 0.0
22/06:30pm 20.0 19.5 13.7 67 3.7 N 9 15 5 8 1018.2 - 0.0
22/06:00pm 21.1 20.1 13.5 62 4.5 N 11 20 6 11 1017.8 1015.9 0.0
22/05:30pm 22.8 21.4 13.3 55 5.6 NNE 13 22 7 12 1017.2 - 0.0
22/05:00pm 24.1 22.3 13.3 51 6.4 NNE 15 24 8 13 1016.9 - 0.0
22/04:30pm 25.4 23.2 13.3 47 7.2 NNE 17 26 9 14 1016.4 - 0.0
22/04:00pm 27.2 26.0 12.8 41 8.6 NE 11 20 6 11 1016.0 - 0.0
22/03:30pm 27.5 25.2 11.9 38 9.2 NE 15 24 8 13 1016.0 - 0.0
22/03:00pm 29.1 25.8 4.6 21 12.9 E 11 17 6 9 1016.0 1014.1 0.0
22/02:30pm 29.1 24.7 7.6 26 11.9 S 20 24 11 13 1016.0 - 0.0
22/02:00pm 28.8 25.3 7.4 26 11.8 ESE 15 24 8 13 1016.3 - 0.0
22/01:30pm 28.2 24.3 6.9 26 11.6 ESE 17 26 9 14 1016.6 - 0.0
22/01:00pm 28.8 24.7 8.5 28 11.4 SE 20 28 11 15 1017.0 - 0.0
22/12:30pm 27.4 23.9 7.3 28 11.0 ESE 15 24 8 13 1017.7 - 0.0
22/12:00pm 25.8 24.0 9.6 36 9.1 SE 9 17 5 9 1018.3 1016.4 0.0
22/11:30am 24.7 23.5 10.2 40 8.2 WNW 7 13 4 7 1018.7 - 0.0
22/11:00am 23.5 22.1 10.9 45 7.2 N 9 15 5 8 1019.2 - 0.0
22/10:30am 22.5 21.2 10.0 45 7.0 N 7 15 4 8 1019.7 - 0.0
22/10:00am 22.1 21.1 10.9 49 6.3 N 7 11 4 6 1020.1 - 0.0
22/09:30am 20.8 20.0 10.9 53 5.5 E 6 11 3 6 1020.3 - 0.0
22/09:00am 19.7 18.4 11.2 58 4.8 SE 9 13 5 7 1020.1 1018.2 0.0
22/08:30am 18.8 16.9 11.9 64 3.9 SE 13 17 7 9 1020.0 - 0.0
22/08:00am 16.7 15.6 11.8 73 2.7 SE 9 13 5 7 1020.1 - 0.0
22/07:30am 14.3 12.6 11.3 82 1.6 SE 11 13 6 7 1020.1 - 0.0
22/07:00am 12.5 11.1 10.9 90 0.9 SE 9 11 5 6 1019.6 - 0.0
22/06:30am 12.0 10.0 10.2 89 0.9 SSE 11 13 6 7 1019.5 - 0.0
22/06:00am 12.3 10.8 10.4 88 1.0 SE 9 11 5 6 1019.2 1017.4 0.0
22/05:30am 12.2 10.2 10.1 87 1.1 SE 11 15 6 8 1018.9 - 0.0
22/05:00am 12.3 10.3 10.2 87 1.1 SE 11 13 6 7 1018.7 - 0.0
22/04:30am 12.1 10.0 9.8 86 1.2 SE 11 13 6 7 1018.6 - 0.0
22/04:00am 12.5 10.5 10.2 86 1.2 SE 11 13 6 7 1018.7 - 0.0
22/03:30am 12.0 9.5 9.7 86 1.2 SE 13 13 7 7 1018.8 - 0.0
22/03:00am 12.3 10.6 9.7 84 1.4 ESE 9 11 5 6 1018.9 1017.0 0.0
22/02:30am 12.8 11.1 10.0 83 1.5 ESE 9 11 5 6 1018.9 - 0.0
22/02:00am 12.7 11.3 9.5 81 1.7 E 7 9 4 5 1019.1 - 0.0
22/01:30am 13.1 11.1 10.1 82 1.6 SE 11 13 6 7 1019.5 - 0.0
22/01:00am 13.0 11.7 9.8 81 1.7 SE 7 13 4 7 1020.0 - 0.0
22/12:30am 12.9 11.5 9.4 79 1.8 SE 7 9 4 5 1020.3 - 0.0
22/12:00am 13.2 11.2 10.2 82 1.6 SSE 11 13 6 7 1020.5 1018.6 0.0
 
Date/Time
EST
Temp
°C
App
Temp
°C
Dew
Point
°C
Rel
Hum
%
Delta-T
°C
Wind Press
QNH
hPa
Press
MSL
hPa
Rain since
9am
mm
Dir  Spd
km/h
Gust
km/h
Spd
kts
Gust
kts
21/11:30pm 13.4 12.0 9.6 78 2.0 SE 7 11 4 6 1020.7 - 0.0
21/11:00pm 13.7 11.6 9.9 78 2.0 SSE 11 13 6 7 1020.7 - 0.0
21/10:30pm 14.1 12.1 10.1 77 2.1 SE 11 13 6 7 1020.7 - 0.0
21/10:00pm 14.5 12.5 10.3 76 2.2 SE 11 15 6 8 1020.7 - 0.0
21/09:30pm 14.3 12.6 9.9 75 2.3 SE 9 13 5 7 1020.5 - 0.0
21/09:00pm 14.6 12.6 10.0 74 2.4 SE 11 13 6 7 1020.4 1018.5 0.0
21/08:30pm 16.1 15.1 10.4 69 3.1 E 6 11 3 6 1020.3 - 0.0
21/08:00pm 16.1 13.8 10.4 69 3.1 SSE 13 17 7 9 1019.5 - 0.0
21/07:30pm 17.0 14.7 10.4 65 3.6 SE 13 20 7 11 1019.1 - 0.0
21/07:00pm 18.4 16.1 10.5 60 4.3 ESE 13 20 7 11 1018.8 - 0.0
21/06:30pm 18.6 15.9 10.4 59 4.5 SE 15 24 8 13 1018.4 - 0.0
21/06:00pm 19.9 16.5 10.6 55 5.2 SE 19 24 10 13 1017.8 1015.9 0.0
21/05:30pm 21.4 18.5 10.9 51 5.9 SE 17 24 9 13 1017.2 - 0.0
21/05:00pm 22.3 19.3 10.8 48 6.5 SSE 17 26 9 14 1016.9 - 0.0
21/04:30pm 23.2 19.8 10.6 45 7.1 SSE 19 26 10 14 1016.4 - 0.0
21/04:00pm 23.9 20.5 10.6 43 7.5 SSE 19 30 10 16 1016.2 - 0.0
21/03:30pm 24.6 21.1 10.1 40 8.2 ESE 19 26 10 14 1016.4 - 0.0
21/03:00pm 24.8 21.5 9.5 38 8.5 SE 17 26 9 14 1016.3 1014.4 0.0
21/02:30pm 24.6 20.9 10.1 40 8.2 SSE 20 30 11 16 1016.4 - 0.0
21/02:00pm 24.2 20.5 9.4 39 8.2 ESE 19 26 10 14 1016.8 - 0.0
21/01:30pm 24.5 23.2 10.0 40 8.2 E 7 24 4 13 1017.0 - 0.0
21/01:00pm 24.1 21.5 9.3 39 8.2 SSE 13 24 7 13 1017.4 - 0.0
21/12:30pm 23.4 21.1 9.0 40 7.9 ESE 11 19 6 10 1018.0 - 0.0
21/12:00pm 23.1 21.7 9.5 42 7.5 SSE 7 17 4 9 1018.5 1016.6 0.0
21/11:30am 22.5 18.8 9.3 43 7.3 SSE 19 26 10 14 1019.1 - 0.0
21/11:00am 21.7 17.9 9.9 47 6.5 ESE 20 28 11 15 1019.5 - 0.0
21/10:30am 21.7 18.1 9.9 47 6.5 SE 19 28 10 15 1020.0 - 0.0
21/10:00am 21.8 19.0 11.2 51 6.0 SSE 17 28 9 15 1019.9 - 0.0
21/09:30am 20.4 17.1 10.8 54 5.4 SE 19 24 10 13 1020.0 - 0.0
21/09:00am 19.7 16.9 11.2 58 4.8 SE 17 26 9 14 1019.9 1018.0 0.0
21/08:30am 18.5 15.3 11.3 63 4.0 SSE 19 24 10 13 1019.6 - 0.0
21/08:00am 16.7 14.4 11.6 72 2.8 SE 15 20 8 11 1019.3 - 0.0
21/07:30am 15.2 12.8 11.4 78 2.1 SSE 15 20 8 11 1019.0 - 0.0
21/07:00am 14.1 12.1 11.4 84 1.5 SSE 13 20 7 11 1018.6 - 0.0
21/06:30am 13.6 11.5 11.3 86 1.2 SE 13 17 7 9 1018.3 - 0.0
21/06:00am 13.7 12.1 11.4 86 1.3 SE 11 19 6 10 1017.9 1016.0 0.0
21/05:30am 14.0 12.1 11.7 86 1.3 SSE 13 19 7 10 1017.7 - 0.0
21/05:00am 14.1 12.2 11.8 86 1.3 SE 13 17 7 9 1017.6 - 0.0
21/04:30am 14.5 12.7 12.2 86 1.3 SE 13 19 7 10 1017.3 - 0.0
21/04:00am 14.6 12.4 12.1 85 1.4 SSE 15 20 8 11 1017.3 - 0.0
21/03:30am 14.6 12.9 12.3 86 1.3 SSE 13 19 7 10 1017.3 - 0.0
21/03:00am 14.5 12.7 12.2 86 1.3 SE 13 15 7 8 1017.4 1015.6 0.0
21/02:30am 14.6 12.9 12.3 86 1.3 SSE 13 19 7 10 1017.6 - 0.0
21/02:00am 14.7 13.4 12.4 86 1.3 SSE 11 15 6 8 1017.9 - 0.0
21/01:30am 14.8 13.5 12.5 86 1.3 SE 11 13 6 7 1018.0 - 0.0
21/01:00am 14.1 13.0 11.8 86 1.3 SE 9 11 5 6 1018.2 - 0.0
21/12:30am 14.7 13.4 12.4 86 1.3 SE 11 13 6 7 1018.5 - 0.0
21/12:00am 14.5 13.4 12.0 85 1.4 SE 9 11 5 6 1018.7 1016.8 0.0
 
Date/Time
EST
Temp
°C
App
Temp
°C
Dew
Point
°C
Rel
Hum
%
Delta-T
°C
Wind Press
QNH
hPa
Press
MSL
hPa
Rain since
9am
mm
Dir  Spd
km/h
Gust
km/h
Spd
kts
Gust
kts
20/11:30pm 15.1 13.7 12.2 83 1.6 SSE 11 15 6 8 1018.7 - 0.0
20/11:00pm 15.2 14.1 12.1 82 1.7 SSE 9 13 5 7 1018.9 - 0.0
20/10:30pm 15.6 13.8 12.2 80 1.9 SE 13 19 7 10 1018.7 - 0.0
20/10:00pm 16.0 13.5 12.2 78 2.1 SSE 17 26 9 14 1018.8 - 0.0
20/09:30pm 16.1 13.1 12.1 77 2.2 SSE 19 24 10 13 1018.7 - 0.0
20/09:00pm 16.4 13.4 11.8 74 2.6 SSE 19 24 10 13 1018.7 1016.8 0.0
20/08:30pm 16.8 13.7 11.7 72 2.8 SSE 19 26 10 14 1018.4 - 0.0
20/08:00pm 17.3 14.1 12.0 71 3.0 S 20 28 11 15 1017.9 - 0.0
20/07:30pm 17.6 16.5 11.8 69 3.3 S 9 13 5 7 1017.7 - 0.0
20/07:00pm 18.8 17.8 12.3 66 3.7 SSW 9 11 5 6 1017.2 - 0.0
20/06:30pm 19.8 19.0 12.8 64 4.0 N 9 15 5 8 1017.1 - 0.0
20/06:00pm 20.8 19.5 12.5 59 4.8 NNE 11 20 6 11 1016.8 1014.9 0.0
20/05:30pm 22.1 20.4 12.6 55 5.5 NNE 13 24 7 13 1016.1 - 0.0
20/05:00pm 23.1 21.4 12.4 51 6.2 NNE 13 20 7 11 1015.7 - 0.0
20/04:30pm 24.0 21.9 12.3 48 6.8 NNE 15 24 8 13 1015.4 - 0.0
20/04:00pm 24.9 22.7 12.2 45 7.4 NNE 15 22 8 12 1015.1 - 0.0
20/03:30pm 25.8 23.8 11.6 41 8.3 NNE 13 22 7 12 1015.0 - 0.0
20/03:00pm 26.3 24.1 10.9 38 8.9 NNE 13 22 7 12 1015.0 1013.1 0.0
20/02:30pm 26.5 23.2 9.4 34 9.6 ESE 17 20 9 11 1015.6 - 0.0
20/02:00pm 26.5 23.5 7.5 30 10.3 ESE 13 20 7 11 1016.0 - 0.0
20/01:30pm 26.5 23.2 8.0 31 10.2 SSE 15 30 8 16 1016.4 - 0.0
20/01:00pm 26.5 23.7 7.0 29 10.5 ENE 11 20 6 11 1016.8 - 0.0
20/12:30pm 26.2 23.1 7.3 30 10.2 SE 13 22 7 12 1017.2 - 0.0
20/12:00pm 24.8 22.1 9.1 37 8.7 E 13 24 7 13 1017.8 1015.9 0.0
20/11:30am 24.7 21.8 8.2 35 9.0 E 13 22 7 12 1018.3 - 0.0
20/11:00am 23.9 19.9 8.3 37 8.5 SE 19 28 10 15 1018.8 - 0.0
20/10:30am 23.4 19.0 7.5 36 8.5 SE 20 30 11 16 1019.3 - 0.0
20/10:00am 22.7 20.2 9.8 44 7.2 E 13 28 7 15 1019.5 - 0.0
20/09:30am 22.2 18.0 9.7 45 6.9 SE 22 35 12 19 1019.4 - 0.0
20/09:00am 21.1 16.5 9.7 48 6.2 ESE 24 30 13 16 1019.3 1017.5 0.0
20/08:30am 20.5 17.9 10.6 53 5.5 ESE 15 33 8 18 1019.1 - 0.0
20/08:00am 19.0 16.5 12.3 65 3.8 SSE 17 22 9 12 1019.0 - 0.0
20/07:30am 17.4 14.8 13.3 77 2.4 SSE 19 22 10 12 1018.7 - 0.0
20/07:00am 16.3 14.6 13.6 84 1.6 SSE 15 22 8 12 1018.4 - 0.0
20/06:30am 16.1 14.8 13.6 85 1.4 SSE 13 20 7 11 1018.2 - 0.0
20/06:00am 16.1 14.8 13.6 85 1.4 SSE 13 20 7 11 1017.9 1016.0 0.0
20/05:30am 16.3 15.0 13.6 84 1.6 SSE 13 19 7 10 1017.8 - 0.0
20/05:00am 16.7 15.4 13.6 82 1.8 SE 13 19 7 10 1017.8 - 0.0
20/04:30am 17.0 15.5 14.1 83 1.7 SSE 15 20 8 11 1017.6 - 0.0
20/04:00am 16.8 16.0 13.9 83 1.7 SSE 11 15 6 8 1017.6 - 0.0
20/03:30am 17.2 15.3 14.1 82 1.8 SSE 17 22 9 12 1017.7 - 0.0
20/03:00am 17.4 15.9 14.1 81 1.9 SE 15 20 8 11 1017.7 1015.8 0.0
20/02:30am 17.6 15.1 14.1 80 2.0 SE 20 28 11 15 1017.8 - 0.0
20/02:00am 17.8 15.4 14.5 81 1.9 SE 20 30 11 16 1017.8 - 0.0
20/01:30am 18.1 15.9 15.0 82 1.8 SE 20 32 11 17 1017.9 - 0.0
20/01:00am 18.0 16.4 14.9 82 1.8 SE 17 20 9 11 1018.1 - 0.0
20/12:30am 18.0 16.4 15.1 83 1.7 SE 17 26 9 14 1018.1 - 0.0
20/12:00am 18.0 16.5 15.3 84 1.6 SE 17 26 9 14 1018.3 1016.4 0.0
 
Date/Time
EST
Temp
°C
App
Temp
°C
Dew
Point
°C
Rel
Hum
%
Delta-T
°C
Wind Press
QNH
hPa
Press
MSL
hPa
Rain since
9am
mm
Dir  Spd
km/h
Gust
km/h
Spd
kts
Gust
kts
19/11:30pm 18.0 17.2 15.1 83 1.7 SE 13 20 7 11 1018.4 - 0.0
19/11:00pm 18.3 16.4 15.2 82 1.9 SSE 19 26 10 14 1018.6 - 0.0
19/10:30pm 18.2 16.1 15.1 82 1.8 SSE 20 30 11 16 1018.7 - 0.0
19/10:00pm 18.3 15.4 15.0 81 2.0 SSE 24 30 13 16 1018.7 - 0.0
19/09:30pm 18.6 16.4 14.3 76 2.5 S 19 26 10 14 1018.7 - 0.0
19/09:00pm 19.2 16.7 14.0 72 3.0 SSE 20 26 11 14 1018.6 1016.7 0.0
19/08:30pm 19.8 19.4 14.0 69 3.4 S 9 15 5 8 1018.5 - 0.0
19/08:00pm 20.3 20.6 13.5 65 4.0 ESE 4 7 2 4 1018.3 - 0.0
19/07:30pm 20.8 21.1 15.1 70 3.4 WSW 7 15 4 8 1017.8 - 0.0

Other Formats:

Comma delimited format used in spreadsheet applications
http://www.bom.gov.au/fwo/IDQ60801/IDQ60801.95286.axf

JavaScript Object Notation format (JSON) in row-major order
http://www.bom.gov.au/fwo/IDQ60801/IDQ60801.95286.json